Time;durP1;ratioP1;P1;durP2;ratioP2;P2;SDS_P1;SDS_P2;PMS_P1;PMS_P2;Temp;Humidity;BMP_temperature;BMP_pressure;BME280_temperature;BME280_humidity;BME280_pressure;Samples;Min_cycle;Max_cycle;Signal;HPM_P1;HPM_P2
2023/01/15 00:02:16;;;;;;;6.37;3.43;;;6.00;99.90;5.50;98725;;;;560987;250;24122;-84
2023/01/15 00:04:42;;;;;;;7.90;3.37;;;6.00;99.90;5.50;98730;;;;552323;256;24174;-84
2023/01/15 00:07:11;;;;;;;4.97;3.90;;;6.00;99.90;5.50;98723;;;;570722;251;24112;-84
2023/01/15 00:09:39;;;;;;;4.10;2.80;;;6.00;99.90;5.50;98726;;;;551982;255;24130;-84
2023/01/15 00:12:07;;;;;;;7.57;3.43;;;6.00;99.90;5.50;98729;;;;570833;251;24184;-84
2023/01/15 00:14:35;;;;;;;5.00;3.43;;;6.00;99.90;5.60;98726;;;;551947;256;24127;-83
2023/01/15 00:17:03;;;;;;;6.67;3.13;;;6.10;99.90;5.60;98719;;;;560137;255;24128;-83
2023/01/15 00:19:31;;;;;;;7.27;4.20;;;6.10;99.90;5.60;98727;;;;565334;251;24122;-84
2023/01/15 00:21:59;;;;;;;10.13;3.07;;;6.10;99.90;5.60;98711;;;;551776;256;24153;-83
2023/01/15 00:30:00;;;;;;;3.93;3.03;;;6.10;99.90;5.50;98705;;;;571469;251;24108;-83
2023/01/15 00:32:28;;;;;;;2.40;2.03;;;6.10;99.90;5.60;98724;;;;554928;256;24121;-84
2023/01/15 00:34:56;;;;;;;5.03;3.67;;;6.10;99.90;5.60;98714;;;;551810;256;24125;-82
2023/01/15 00:37:24;;;;;;;3.93;2.63;;;6.10;99.90;5.60;98702;;;;570344;251;24088;-84
2023/01/15 00:39:52;;;;;;;6.20;3.60;;;6.10;99.90;5.60;98701;;;;552126;256;24143;-84
2023/01/15 00:42:20;;;;;;;2.97;2.50;;;6.10;99.90;5.60;98708;;;;560213;250;24094;-82
2023/01/15 00:44:51;;;;;;;5.03;3.77;;;6.10;99.90;5.60;98702;;;;571535;251;24101;-83
2023/01/15 00:47:16;;;;;;;6.47;3.23;;;6.10;99.90;5.60;98689;;;;551637;256;24433;-82
2023/01/15 00:49:43;;;;;;;5.47;3.37;;;6.10;99.90;5.60;98676;;;;551942;256;24109;-82
2023/01/15 00:52:11;;;;;;;6.07;3.53;;;6.10;99.90;5.60;98680;;;;551825;256;24133;-82
2023/01/15 00:54:40;;;;;;;6.07;2.93;;;6.10;99.90;5.60;98649;;;;561947;251;24112;-83
2023/01/15 00:57:10;;;;;;;6.97;4.03;;;6.10;99.90;5.60;98625;;;;566256;247;24212;-83
2023/01/15 00:59:36;;;;;;;4.47;3.17;;;6.10;99.90;5.60;98625;;;;552657;255;25195;-83
2023/01/15 01:02:04;;;;;;;7.10;3.80;;;6.10;99.90;5.60;98597;;;;552632;255;24114;-83
2023/01/15 01:04:32;;;;;;;5.57;3.10;;;6.00;99.90;5.50;98582;;;;552546;255;24177;-82
2023/01/15 01:07:00;;;;;;;5.77;2.90;;;6.00;99.90;5.50;98578;;;;552421;256;24131;-84
2023/01/15 01:09:28;;;;;;;5.43;3.00;;;6.00;99.90;5.50;98570;;;;560579;256;24122;-83
2023/01/15 01:11:56;;;;;;;4.50;2.90;;;6.00;99.90;5.50;98571;;;;552705;256;24246;-83
2023/01/15 01:14:26;;;;;;;4.30;2.77;;;6.00;99.90;5.60;98566;;;;552560;256;24159;-83
2023/01/15 01:16:51;;;;;;;11.47;3.80;;;6.00;99.90;5.60;98550;;;;572259;251;24101;-83
2023/01/15 01:19:19;;;;;;;3.47;2.67;;;6.00;99.90;5.60;98541;;;;560811;256;24126;-84
2023/01/15 01:21:51;;;;;;;7.87;2.70;;;6.10;99.90;5.60;98544;;;;560670;250;24126;-83
2023/01/15 01:24:19;;;;;;;3.73;2.50;;;6.10;99.90;5.60;98551;;;;560658;251;24089;-83
2023/01/15 01:26:47;;;;;;;7.87;3.50;;;6.10;99.90;5.60;98553;;;;562421;251;24069;-84
2023/01/15 01:29:17;;;;;;;3.47;2.30;;;6.10;99.90;5.70;98560;;;;571705;250;24117;-83
2023/01/15 01:31:45;;;;;;;7.53;2.73;;;6.20;99.90;5.70;98564;;;;552141;256;26368;-82
2023/01/15 01:34:13;;;;;;;4.90;2.50;;;6.20;99.90;5.70;98570;;;;551707;256;24142;-82
2023/01/15 01:36:41;;;;;;;4.40;2.33;;;6.20;99.90;5.80;98552;;;;560200;250;24214;-83
2023/01/15 01:39:09;;;;;;;3.13;2.47;;;6.20;99.90;5.80;98526;;;;560028;250;24087;-84
2023/01/15 01:41:37;;;;;;;7.20;2.67;;;6.30;99.90;5.80;98517;;;;551628;256;24134;-82
2023/01/15 01:44:08;;;;;;;8.73;2.87;;;6.30;99.90;5.80;98536;;;;551828;256;24112;-82
2023/01/15 01:46:35;;;;;;;4.70;2.80;;;6.30;99.90;5.90;98522;;;;558973;256;24127;-82
2023/01/15 01:49:07;;;;;;;4.40;2.87;;;6.40;99.90;5.90;98516;;;;571619;250;24127;-83
2023/01/15 01:51:40;;;;;;;2.47;2.27;;;6.40;99.90;6.00;98518;;;;570414;251;24101;-83
2023/01/15 01:54:12;;;;;;;4.20;2.20;;;6.40;99.90;6.00;98521;;;;561067;251;24158;-83
2023/01/15 01:56:39;;;;;;;6.70;2.13;;;6.50;99.90;6.00;98517;;;;560986;251;24111;-83
2023/01/15 01:59:04;;;;;;;4.40;2.63;;;6.50;99.90;6.10;98507;;;;551555;256;24182;-83
2023/01/15 02:01:32;;;;;;;3.00;2.10;;;6.50;99.90;6.10;98521;;;;570443;251;24132;-84
2023/01/15 02:04:00;;;;;;;3.10;2.40;;;6.60;99.90;6.10;98512;;;;559884;256;25199;-83
2023/01/15 02:06:31;;;;;;;3.33;2.03;;;6.60;99.90;6.20;98499;;;;561993;251;24097;-83
2023/01/15 02:08:56;;;;;;;2.13;1.83;;;6.60;99.90;6.20;98504;;;;562595;251;24100;-83
2023/01/15 02:11:24;;;;;;;2.67;2.07;;;6.70;99.90;6.20;98494;;;;571941;251;24121;-84
2023/01/15 02:13:58;;;;;;;8.83;2.13;;;6.70;99.90;6.20;98497;;;;561089;255;24239;-83
2023/01/15 02:16:41;;;;;;;2.87;2.03;;;6.70;99.90;6.30;98473;;;;552753;255;24127;-82
2023/01/15 02:19:46;;;;;;;2.83;2.07;;;6.70;99.90;6.30;98479;;;;560670;256;24115;-83
2023/01/15 02:22:14;;;;;;;11.27;2.20;;;6.70;99.90;6.30;98469;;;;560586;254;24118;-84
2023/01/15 02:25:07;;;;;;;6.97;2.10;;;6.70;99.90;6.30;98466;;;;571834;251;24098;-83
2023/01/15 02:27:37;;;;;;;2.17;1.97;;;6.80;99.90;6.30;98461;;;;562564;251;24118;-82
2023/01/15 02:30:11;;;;;;;2.47;1.80;;;6.80;99.90;6.30;98470;;;;571643;251;24119;-82
2023/01/15 02:32:50;;;;;;;5.37;2.00;;;6.80;99.90;6.30;98470;;;;560775;256;24132;-82
2023/01/15 02:35:33;;;;;;;2.77;2.00;;;6.80;99.90;6.40;98475;;;;560531;256;24152;-82
2023/01/15 02:38:01;;;;;;;3.63;1.40;;;6.80;99.90;6.40;98457;;;;562724;251;24098;-81
2023/01/15 02:40:32;;;;;;;4.10;2.30;;;6.80;99.90;6.40;98449;;;;570596;251;24091;-83
2023/01/15 02:42:57;;;;;;;4.93;2.53;;;6.90;99.90;6.40;98466;;;;565561;251;35207;-84
2023/01/15 02:45:31;;;;;;;4.07;2.23;;;6.90;99.90;6.40;98450;;;;551779;256;24148;-83
2023/01/15 02:47:59;;;;;;;2.93;1.97;;;6.90;99.90;6.50;98429;;;;570244;251;24122;-82
2023/01/15 02:50:27;;;;;;;2.53;2.13;;;7.00;99.90;6.50;98446;;;;570147;251;24146;-83
2023/01/15 02:52:55;;;;;;;2.87;1.77;;;6.90;99.90;6.50;98443;;;;569071;251;24184;-84
2023/01/15 02:55:25;;;;;;;2.33;1.73;;;6.90;99.90;6.50;98444;;;;570351;251;24080;-83
2023/01/15 02:57:53;;;;;;;3.93;2.33;;;6.90;99.90;6.50;98432;;;;558011;252;24147;-82
2023/01/15 03:00:21;;;;;;;3.33;1.83;;;6.90;99.90;6.50;98434;;;;559752;251;24084;-83
2023/01/15 03:02:49;;;;;;;2.70;1.87;;;7.00;99.90;6.50;98422;;;;562124;251;24144;-83
2023/01/15 03:05:28;;;;;;;2.07;1.97;;;6.90;99.90;6.50;98421;;;;570305;251;24077;-83
2023/01/15 03:07:59;;;;;;;5.07;1.97;;;7.00;99.90;6.50;98417;;;;570374;251;24153;-84
2023/01/15 03:10:30;;;;;;;7.30;2.40;;;7.00;99.90;6.50;98417;;;;555571;256;24163;-83
2023/01/15 03:13:04;;;;;;;7.00;1.90;;;7.00;99.90;6.50;98412;;;;565525;251;24104;-83
2023/01/15 03:18:27;;;;;;;4.23;1.27;;;7.00;99.90;6.60;98390;;;;571906;249;25131;-84
2023/01/15 03:20:55;;;;;;;2.27;1.80;;;7.00;99.90;6.60;98385;;;;572249;250;24138;-83
2023/01/15 03:23:26;;;;;;;1.30;1.30;;;7.00;99.90;6.60;98380;;;;566091;251;25127;-83
2023/01/15 03:25:51;;;;;;;3.13;1.50;;;7.10;99.90;6.60;98386;;;;572171;251;24087;-82
2023/01/15 03:28:19;;;;;;;2.30;1.67;;;7.10;99.90;6.60;98404;;;;560688;255;24179;-83
2023/01/15 03:30:47;;;;;;;1.80;1.70;;;7.10;99.90;6.60;98388;;;;551917;256;24154;-83
2023/01/15 03:33:14;;;;;;;1.73;1.17;;;7.00;99.90;6.60;98370;;;;571092;250;24194;-83
2023/01/15 03:35:56;;;;;;;2.30;1.27;;;7.10;99.90;6.60;98381;;;;552300;256;24157;-83
2023/01/15 03:38:24;;;;;;;2.33;1.50;;;7.10;99.90;6.70;98385;;;;560468;251;25128;-82
2023/01/15 03:41:29;;;;;;;4.03;1.47;;;7.10;99.90;6.60;98381;;;;550325;256;24186;-83
2023/01/15 03:44:21;;;;;;;3.80;1.70;;;7.10;99.90;6.60;98391;;;;568780;251;24190;-82
2023/01/15 03:47:16;;;;;;;2.40;1.43;;;7.00;99.90;6.60;98388;;;;570107;251;24087;-83
2023/01/15 03:49:56;;;;;;;3.63;1.70;;;7.00;99.90;6.60;98410;;;;570662;251;24084;-82
2023/01/15 03:52:41;;;;;;;3.43;1.83;;;7.00;99.90;6.60;98402;;;;560470;256;24140;-82
2023/01/15 03:55:22;;;;;;;2.43;1.30;;;7.00;99.90;6.60;98413;;;;553224;256;24116;-84
2023/01/15 03:58:10;;;;;;;4.30;1.30;;;7.00;99.90;6.50;98407;;;;559918;250;24086;-84
2023/01/15 04:00:50;;;;;;;1.80;1.00;;;6.90;99.90;6.40;98400;;;;561372;255;24138;-83
2023/01/15 04:03:18;;;;;;;4.27;1.77;;;6.80;99.90;6.30;98395;;;;555756;256;25167;-83
2023/01/15 04:05:49;;;;;;;1.00;1.00;;;6.70;99.90;6.20;98395;;;;570589;251;24182;-83
2023/01/15 04:08:22;;;;;;;2.90;1.57;;;6.70;99.90;6.20;98389;;;;569917;251;24171;-85
2023/01/15 04:10:50;;;;;;;0.97;0.97;;;6.60;99.90;6.10;98374;;;;570719;251;24071;-83
2023/01/15 04:13:21;;;;;;;1.93;1.20;;;6.50;99.90;6.00;98376;;;;552241;256;24143;-84
2023/01/15 04:15:49;;;;;;;6.60;1.87;;;6.40;99.90;6.00;98369;;;;552287;256;24287;-84
2023/01/15 04:18:17;;;;;;;1.43;1.43;;;6.30;99.90;5.90;98363;;;;560405;256;24126;-84
2023/01/15 04:20:42;;;;;;;7.47;1.63;;;6.30;99.90;5.90;98374;;;;571055;250;24147;-83
2023/01/15 04:23:14;;;;;;;2.60;1.40;;;6.30;99.90;5.90;98375;;;;562923;251;24117;-83
2023/01/15 04:25:39;;;;;;;3.30;1.67;;;6.30;99.90;5.80;98368;;;;571028;249;24135;-83
2023/01/15 04:28:07;;;;;;;1.87;1.30;;;6.20;99.90;5.80;98371;;;;555493;256;24123;-84
2023/01/15 04:30:38;;;;;;;2.47;1.47;;;6.20;99.90;5.80;98378;;;;560709;249;24100;-83
2023/01/15 04:33:03;;;;;;;2.27;1.70;;;6.20;99.90;5.80;98384;;;;561296;251;24095;-83
2023/01/15 04:35:34;;;;;;;1.17;1.00;;;6.20;99.90;5.70;98384;;;;561266;255;24111;-83
2023/01/15 04:37:59;;;;;;;1.10;1.10;;;6.20;99.90;5.70;98366;;;;563360;251;24148;-81
2023/01/15 04:46:00;;;;;;;4.83;1.67;;;6.20;99.90;5.70;98370;;;;572041;249;25124;-84
2023/01/15 04:48:31;;;;;;;2.77;1.30;;;6.20;99.90;5.80;98371;;;;561508;256;25538;-83
2023/01/15 04:50:57;;;;;;;2.07;1.87;;;6.20;99.90;5.80;98380;;;;552049;256;24174;-84
2023/01/15 04:53:25;;;;;;;4.60;1.43;;;6.20;99.90;5.80;98379;;;;571660;250;24087;-84
2023/01/15 04:55:54;;;;;;;1.33;1.23;;;6.20;99.90;5.80;98366;;;;570768;251;25192;-85
2023/01/15 04:58:22;;;;;;;3.00;1.27;;;6.20;99.90;5.70;98363;;;;562086;251;24091;-83
2023/01/15 05:00:49;;;;;;;4.82;2.25;;;6.20;99.90;5.70;98359;;;;547388;255;35352;-85
2023/01/15 05:03:18;;;;;;;2.43;1.57;;;6.20;99.90;5.80;98349;;;;560495;251;24156;-84
2023/01/15 05:05:49;;;;;;;1.20;1.20;;;6.20;99.90;5.80;98355;;;;551964;256;24112;-84
2023/01/15 05:08:15;;;;;;;1.67;1.30;;;6.20;99.90;5.80;98357;;;;560149;251;24120;-84
2023/01/15 05:10:43;;;;;;;1.43;1.23;;;6.20;99.90;5.80;98361;;;;551815;256;24170;-83
2023/01/15 05:13:14;;;;;;;3.67;1.70;;;6.20;99.90;5.80;98364;;;;552180;256;24120;-84
2023/01/15 05:15:45;;;;;;;1.23;1.13;;;6.20;99.90;5.80;98361;;;;562406;251;24095;-82
2023/01/15 05:18:13;;;;;;;6.30;2.07;;;6.20;99.90;5.80;98357;;;;571841;251;24172;-82
2023/01/15 05:20:38;;;;;;;1.77;1.30;;;6.20;99.90;5.80;98351;;;;552044;256;24203;-83
2023/01/15 05:23:09;;;;;;;2.20;1.23;;;6.30;99.90;5.80;98343;;;;552181;256;24107;-84
2023/01/15 05:25:41;;;;;;;2.67;1.60;;;6.30;99.90;5.90;98352;;;;551974;256;24153;-82
2023/01/15 05:28:07;;;;;;;1.07;1.07;;;6.30;99.90;5.90;98357;;;;553886;254;25183;-84
2023/01/15 05:30:37;;;;;;;5.20;1.33;;;6.30;99.90;5.90;98356;;;;551945;256;24175;-83
2023/01/15 05:33:08;;;;;;;2.93;1.23;;;6.30;99.90;5.90;98340;;;;551814;256;24184;-84
2023/01/15 05:35:33;;;;;;;1.47;1.37;;;6.30;99.90;6.00;98335;;;;551902;256;24136;-83
2023/01/15 05:38:02;;;;;;;1.63;1.43;;;6.40;99.90;5.90;98329;;;;552168;256;24128;-84
2023/01/15 05:40:29;;;;;;;2.37;1.20;;;6.40;99.90;6.00;98334;;;;552369;256;24155;-83
2023/01/15 05:43:01;;;;;;;1.30;1.30;;;6.40;99.90;6.00;98336;;;;553500;255;24111;-83
2023/01/15 05:45:25;;;;;;;1.00;0.97;;;6.40;99.90;6.00;98329;;;;553300;255;24230;-83
2023/01/15 05:47:52;;;;;;;1.87;1.23;;;6.40;99.90;6.00;98328;;;;552885;255;24230;-84
2023/01/15 05:50:20;;;;;;;3.70;1.20;;;6.50;99.90;6.00;98326;;;;552547;255;24198;-83
2023/01/15 05:52:48;;;;;;;1.13;1.03;;;6.50;99.90;6.00;98325;;;;552728;256;24159;-83
2023/01/15 05:55:16;;;;;;;3.20;1.20;;;6.50;99.90;6.10;98325;;;;571125;251;24105;-83
2023/01/15 05:57:48;;;;;;;1.37;1.20;;;6.50;99.90;6.10;98323;;;;551126;256;24142;-84
2023/01/15 06:00:12;;;;;;;1.20;1.10;;;6.50;99.90;6.10;98326;;;;571433;250;24095;-83
2023/01/15 06:02:40;;;;;;;1.30;1.20;;;6.50;99.90;6.10;98312;;;;560819;251;24078;-84
2023/01/15 06:05:19;;;;;;;1.30;1.20;;;6.50;99.90;6.10;98307;;;;552423;256;24143;-84
2023/01/15 06:07:39;;;;;;;1.53;1.13;;;6.50;99.90;6.10;98305;;;;562359;251;24098;-82
2023/01/15 06:10:11;;;;;;;1.40;1.30;;;6.50;99.90;6.10;98311;;;;552396;256;24166;-84
2023/01/15 06:12:35;;;;;;;2.37;1.30;;;6.50;99.90;6.10;98324;;;;562435;248;24084;-84
2023/01/15 06:15:03;;;;;;;1.17;1.07;;;6.60;99.90;6.20;98316;;;;560138;256;24118;-85
2023/01/15 06:17:31;;;;;;;1.10;1.00;;;6.60;99.90;6.20;98311;;;;562372;251;24392;-84
2023/01/15 06:19:59;;;;;;;3.00;1.07;;;6.60;99.90;6.20;98317;;;;565161;251;24153;-84
2023/01/15 06:22:28;;;;;;;1.23;1.10;;;6.60;99.90;6.20;98317;;;;571597;251;24079;-83
2023/01/15 06:24:55;;;;;;;1.40;1.30;;;6.60;99.90;6.20;98300;;;;551869;256;24112;-84
2023/01/15 06:27:23;;;;;;;1.30;1.20;;;6.60;99.90;6.20;98310;;;;551869;256;24125;-84
2023/01/15 06:29:57;;;;;;;2.47;1.00;;;6.60;99.90;6.10;98307;;;;570448;251;24115;-84
2023/01/15 06:32:19;;;;;;;1.80;1.20;;;6.60;99.90;6.10;98312;;;;565537;248;24162;-84
2023/01/15 06:34:47;;;;;;;1.10;1.10;;;6.60;99.90;6.10;98303;;;;554551;256;24194;-84
2023/01/15 06:37:15;;;;;;;1.40;1.30;;;6.60;99.90;6.10;98307;;;;551949;256;24148;-85
2023/01/15 06:39:43;;;;;;;1.07;1.03;;;6.60;99.90;6.10;98297;;;;560145;251;24106;-84
2023/01/15 06:47:44;;;;;;;0.90;0.83;;;6.60;99.90;6.20;98307;;;;571924;250;24146;-83
2023/01/15 06:50:14;;;;;;;0.87;0.87;;;6.60;99.90;6.10;98313;;;;565829;250;24154;-83
2023/01/15 06:52:39;;;;;;;0.90;0.90;;;6.60;99.90;6.20;98326;;;;561709;251;24131;-84
2023/01/15 06:55:11;;;;;;;0.97;0.97;;;6.60;99.90;6.10;98321;;;;553501;255;25142;-85
2023/01/15 06:57:36;;;;;;;0.97;0.93;;;6.60;99.90;6.20;98327;;;;563961;251;24097;-83
2023/01/15 07:00:04;;;;;;;1.03;1.03;;;6.60;99.90;6.20;98326;;;;571824;251;24161;-84
2023/01/15 07:02:35;;;;;;;1.13;1.13;;;6.60;99.90;6.20;98333;;;;563518;251;24141;-84
2023/01/15 07:05:06;;;;;;;0.60;0.60;;;6.60;99.90;6.20;98322;;;;569161;251;24167;-84
2023/01/15 07:07:30;;;;;;;1.13;1.00;;;6.60;99.90;6.20;98326;;;;551942;256;24155;-83
2023/01/15 07:09:59;;;;;;;0.90;0.90;;;6.60;99.90;6.20;98330;;;;572025;250;24147;-83
2023/01/15 07:12:27;;;;;;;1.00;1.00;;;6.60;99.90;6.20;98328;;;;552636;256;24124;-83
2023/01/15 07:14:58;;;;;;;1.20;1.13;;;6.60;99.90;6.20;98326;;;;561493;256;24207;-83
2023/01/15 07:17:26;;;;;;;2.20;1.17;;;6.70;99.90;6.30;98329;;;;552451;256;24127;-82
2023/01/15 07:19:56;;;;;;;3.70;1.10;;;6.70;99.90;6.20;98329;;;;552588;256;24159;-83
2023/01/15 07:22:22;;;;;;;0.90;0.90;;;6.70;99.90;6.30;98326;;;;552317;256;24168;-83
2023/01/15 07:24:49;;;;;;;0.90;0.83;;;6.70;99.90;6.30;98326;;;;552509;256;25267;-83
2023/01/15 07:27:20;;;;;;;0.77;0.77;;;6.70;99.90;6.30;98331;;;;562903;251;24136;-83
2023/01/15 07:29:48;;;;;;;1.87;1.10;;;6.70;99.90;6.30;98331;;;;571146;249;24171;-86
2023/01/15 07:32:13;;;;;;;1.40;1.10;;;6.70;99.90;6.30;98325;;;;568906;247;24123;-84
2023/01/15 07:34:45;;;;;;;0.70;0.70;;;6.70;99.90;6.30;98324;;;;552088;256;24131;-83
2023/01/15 07:37:12;;;;;;;1.30;1.20;;;6.80;99.90;6.40;98311;;;;560031;256;25171;-83
2023/01/15 07:39:37;;;;;;;1.30;1.30;;;6.80;99.90;6.40;98315;;;;570507;251;24084;-82
2023/01/15 07:50:25;;;;;;;1.40;1.30;;;6.90;99.90;6.50;98335;;;;560728;254;24204;-83
2023/01/15 07:52:56;;;;;;;1.80;1.10;;;6.90;99.90;6.50;98327;;;;552074;256;24139;-83
2023/01/15 07:55:21;;;;;;;4.93;1.50;;;6.90;99.90;6.50;98330;;;;552372;256;24154;-88
2023/01/15 07:57:54;;;;;;;1.73;1.10;;;6.90;99.90;6.50;98341;;;;550755;256;24190;-85
2023/01/15 08:00:21;;;;;;;1.17;1.13;;;7.00;99.90;6.50;98346;;;;561283;245;24161;-76
2023/01/15 08:02:49;;;;;;;1.03;1.03;;;7.00;99.90;6.60;98388;;;;556547;258;24202;-78
2023/01/15 08:05:17;;;;;;;0.50;0.50;;;7.00;99.90;6.50;98385;;;;557999;255;24186;-79
2023/01/15 08:07:49;;;;;;;0.50;0.47;;;6.90;99.90;6.30;98387;;;;535217;264;24230;-78
2023/01/15 08:10:13;;;;;;;0.30;0.30;;;6.80;99.90;6.20;98396;;;;540589;261;24160;-79
2023/01/15 08:15:26;;;;;;;0.63;0.63;;;6.50;99.90;5.80;98388;;;;552043;260;24154;-77
2023/01/15 08:17:55;;;;;;;0.73;0.60;;;6.10;99.90;5.70;98406;;;;542388;261;25367;-77
2023/01/15 08:20:23;;;;;;;1.60;0.80;;;6.10;99.90;5.60;98389;;;;554898;251;24153;-77
2023/01/15 08:22:51;;;;;;;0.87;0.83;;;6.00;99.90;5.50;98394;;;;559651;256;24152;-76
2023/01/15 08:25:19;;;;;;;0.70;0.70;;;5.90;99.90;5.40;98396;;;;548231;260;25282;-78
2023/01/15 08:27:48;;;;;;;1.27;1.13;;;5.80;99.90;5.40;98405;;;;544485;256;25218;-76
2023/01/15 08:30:22;;;;;;;1.43;1.30;;;5.80;99.90;5.30;98410;;;;551678;259;24166;-78
2023/01/15 08:32:54;;;;;;;0.87;0.87;;;5.80;99.90;5.30;98408;;;;553550;257;24148;-79
2023/01/15 08:35:18;;;;;;;1.30;1.20;;;5.80;99.90;5.30;98398;;;;561563;252;24141;-78
2023/01/15 08:37:46;;;;;;;0.93;0.93;;;5.80;99.90;5.30;98403;;;;541924;261;24203;-79
2023/01/15 08:40:14;;;;;;;1.40;1.30;;;5.80;99.90;5.30;98411;;;;541893;261;24186;-78
2023/01/15 08:42:42;;;;;;;1.43;1.33;;;5.70;99.90;5.30;98407;;;;541594;262;24222;-78
2023/01/15 08:45:13;;;;;;;1.47;1.33;;;5.80;99.90;5.30;98411;;;;541677;262;24169;-79
2023/01/15 08:47:37;;;;;;;3.03;1.47;;;5.80;99.90;5.30;98415;;;;546512;262;24175;-79
2023/01/15 08:50:12;;;;;;;0.83;0.83;;;5.80;99.90;5.30;98416;;;;547762;261;24211;-78
2023/01/15 08:52:37;;;;;;;2.67;1.47;;;5.70;99.90;5.20;98424;;;;542541;259;24183;-77
2023/01/15 08:55:07;;;;;;;1.43;1.30;;;5.70;99.90;5.30;98422;;;;548382;257;24212;-77
2023/01/15 08:57:32;;;;;;;2.53;1.40;;;5.70;99.90;5.20;98416;;;;560647;251;24145;-80
2023/01/15 09:00:00;;;;;;;4.17;0.93;;;5.70;99.90;5.20;98420;;;;541548;262;24194;-76
2023/01/15 09:02:28;;;;;;;1.60;1.00;;;5.70;99.90;5.20;98426;;;;541613;262;24175;-77
2023/01/15 09:04:56;;;;;;;5.23;0.93;;;5.60;99.90;5.20;98414;;;;541519;262;24204;-79
2023/01/15 09:07:24;;;;;;;3.60;0.83;;;5.60;99.90;5.20;98420;;;;541724;262;24236;-78
2023/01/15 09:09:53;;;;;;;0.83;0.80;;;5.60;99.90;5.10;98425;;;;541589;262;24247;-77
2023/01/15 09:12:23;;;;;;;1.23;0.50;;;5.60;99.90;5.10;98429;;;;541374;262;24188;-76
2023/01/15 09:14:49;;;;;;;3.10;1.17;;;5.60;99.90;5.10;98442;;;;541785;262;24207;-76
2023/01/15 09:17:16;;;;;;;5.27;1.27;;;5.60;99.90;5.10;98436;;;;542357;261;24211;-76
2023/01/15 09:19:44;;;;;;;1.17;1.00;;;5.60;99.90;5.10;98429;;;;543034;262;24207;-75
2023/01/15 09:22:12;;;;;;;2.07;1.10;;;5.60;99.90;5.10;98415;;;;539565;262;24227;-76
2023/01/15 09:24:41;;;;;;;4.87;1.27;;;5.70;99.90;5.20;98427;;;;542622;262;24185;-78
2023/01/15 09:27:09;;;;;;;2.80;1.30;;;5.70;99.90;5.20;98427;;;;542392;262;24157;-80
2023/01/15 09:29:37;;;;;;;1.93;1.40;;;5.80;99.90;5.20;98435;;;;539284;262;24183;-78
2023/01/15 09:32:08;;;;;;;1.53;1.20;;;5.80;99.90;5.30;98437;;;;542363;262;24176;-76
2023/01/15 09:34:32;;;;;;;2.37;1.80;;;5.80;99.90;5.30;98427;;;;539151;262;24183;-78
2023/01/15 09:37:00;;;;;;;6.87;1.40;;;5.80;99.90;5.30;98422;;;;541896;262;24184;-77
2023/01/15 09:39:28;;;;;;;3.73;1.60;;;5.90;99.90;5.30;98433;;;;541755;262;24172;-77
2023/01/15 09:42:26;;;;;;;3.93;1.93;;;5.90;99.90;5.40;98429;;;;541712;262;24229;-76
2023/01/15 09:45:15;;;;;;;1.90;1.67;;;5.90;99.90;5.40;98434;;;;538749;260;24212;-76
2023/01/15 09:47:55;;;;;;;2.30;1.80;;;6.00;99.90;5.50;98433;;;;538842;261;24175;-78
2023/01/15 09:50:38;;;;;;;2.57;1.30;;;6.00;99.90;5.50;98442;;;;539049;261;24172;-80
2023/01/15 09:53:53;;;;;;;4.70;1.50;;;6.10;99.90;5.50;98431;;;;538890;262;24212;-78
2023/01/15 09:56:19;;;;;;;3.50;1.70;;;6.10;99.90;5.60;98433;;;;536096;262;24176;-78
2023/01/15 09:58:47;;;;;;;3.17;1.20;;;6.20;99.90;5.60;98438;;;;538207;262;24197;-78
2023/01/15 10:01:21;;;;;;;2.30;1.20;;;6.20;99.90;5.60;98437;;;;541465;262;24213;-76
2023/01/15 10:04:03;;;;;;;2.60;1.30;;;6.20;99.90;5.60;98436;;;;538392;262;24236;-76
2023/01/15 10:06:59;;;;;;;1.10;1.00;;;6.20;99.90;5.70;98428;;;;537857;262;24178;-77
2023/01/15 10:09:34;;;;;;;4.40;1.53;;;6.20;99.90;5.70;98427;;;;538237;262;24226;-79
2023/01/15 10:15:01;;;;;;;2.93;1.27;;;6.30;99.90;5.70;98439;;;;546697;261;24238;-77
2023/01/15 10:17:33;;;;;;;3.40;1.53;;;6.30;99.90;5.70;98424;;;;535746;262;24193;-80
2023/01/15 10:20:00;;;;;;;3.13;1.90;;;6.30;99.90;5.70;98423;;;;541331;262;24227;-78
2023/01/15 10:22:30;;;;;;;1.60;1.50;;;6.30;99.90;5.80;98428;;;;546639;262;24168;-77
2023/01/15 10:24:58;;;;;;;3.83;1.50;;;6.30;99.90;5.80;98427;;;;538425;262;24186;-77
2023/01/15 10:27:26;;;;;;;1.77;1.33;;;6.30;99.90;5.80;98433;;;;538608;262;24173;-78
2023/01/15 10:30:12;;;;;;;2.90;1.70;;;6.30;99.90;5.80;98442;;;;539692;262;24180;-78
2023/01/15 10:32:52;;;;;;;1.50;1.40;;;6.30;99.90;5.80;98444;;;;539570;262;24224;-77
2023/01/15 10:35:23;;;;;;;1.17;1.07;;;6.30;99.90;5.80;98438;;;;542396;262;24215;-76
2023/01/15 10:37:56;;;;;;;3.53;1.87;;;6.30;99.90;5.70;98439;;;;542456;262;24201;-76
2023/01/15 10:40:33;;;;;;;2.40;1.33;;;6.20;99.90;5.70;98435;;;;542044;262;24198;-76
2023/01/15 10:43:01;;;;;;;4.18;2.45;;;6.20;99.90;5.70;98429;;;;536963;262;46782;-76
2023/01/15 10:45:46;;;;;;;3.47;2.23;;;6.20;99.90;5.80;98419;;;;540999;262;24208;-76
2023/01/15 10:48:38;;;;;;;3.63;2.00;;;6.30;99.90;5.70;98417;;;;538775;262;24236;-76
2023/01/15 10:51:18;;;;;;;3.10;2.10;;;6.30;99.90;5.70;98401;;;;535853;262;24238;-76
2023/01/15 10:53:53;;;;;;;2.60;1.70;;;6.30;99.90;5.70;98412;;;;538715;262;24200;-76
2023/01/15 10:57:04;;;;;;;7.00;2.30;;;6.20;99.90;5.80;98413;;;;541675;262;24235;-76
2023/01/15 10:59:34;;;;;;;3.17;1.67;;;6.30;99.90;5.80;98433;;;;539009;262;24165;-75
2023/01/15 11:02:04;;;;;;;7.43;2.60;;;6.30;99.90;5.80;98420;;;;546474;262;24191;-77
2023/01/15 11:04:32;;;;;;;3.33;1.60;;;6.40;99.90;5.80;98424;;;;538958;262;24176;-77
2023/01/15 11:07:02;;;;;;;3.27;1.90;;;6.40;99.90;5.90;98422;;;;541861;262;24195;-76
2023/01/15 11:09:33;;;;;;;4.30;2.07;;;6.40;99.90;5.90;98430;;;;541797;262;24232;-76
2023/01/15 11:20:44;;;;;;;2.63;1.53;;;6.40;99.90;5.80;98442;;;;546555;262;24254;-77
2023/01/15 11:23:15;;;;;;;2.20;1.80;;;6.30;99.90;5.80;98442;;;;539005;262;24180;-77
2023/01/15 11:25:58;;;;;;;3.93;2.00;;;6.30;99.90;5.70;98444;;;;538743;262;24238;-76
2023/01/15 11:28:34;;;;;;;4.30;2.35;;;6.30;99.90;5.70;98441;;;;534398;262;35715;-76
2023/01/15 11:31:00;;;;;;;3.03;1.97;;;6.30;99.90;5.70;98448;;;;538369;262;24170;-78
2023/01/15 11:33:31;;;;;;;2.97;1.63;;;6.20;99.90;5.70;98458;;;;541825;262;24532;-79
2023/01/15 11:36:00;;;;;;;2.20;1.50;;;6.20;99.90;5.70;98462;;;;541512;262;24189;-77
2023/01/15 11:38:27;;;;;;;5.30;1.93;;;6.20;99.90;5.70;98444;;;;541351;262;24184;-78
2023/01/15 11:40:58;;;;;;;3.00;2.13;;;6.20;99.90;5.70;98436;;;;541464;262;24184;-78
2023/01/15 11:51:50;;;;;;;3.83;2.20;;;6.10;99.90;5.60;98410;;;;547257;262;24165;-78
2023/01/15 11:54:21;;;;;;;2.60;1.00;;;6.10;99.90;5.50;98405;;;;542171;262;24278;-76
2023/01/15 11:56:47;;;;;;;1.13;1.00;;;6.10;99.90;5.60;98382;;;;541887;262;25310;-78
2023/01/15 11:59:18;;;;;;;1.50;1.00;;;6.10;99.90;5.60;98379;;;;547116;260;24175;-78
2023/01/15 12:01:53;;;;;;;1.10;1.00;;;6.10;99.90;5.60;98376;;;;542282;262;24182;-79
2023/01/15 12:04:36;;;;;;;2.30;1.10;;;6.10;99.90;5.60;98379;;;;539197;262;24184;-78
2023/01/15 12:07:04;;;;;;;2.17;1.30;;;6.10;99.90;5.60;98371;;;;541160;262;24248;-78
2023/01/15 12:09:54;;;;;;;3.47;1.43;;;6.10;99.90;5.50;98371;;;;541277;262;24188;-76
2023/01/15 12:12:30;;;;;;;1.07;1.03;;;6.10;99.90;5.50;98373;;;;539304;262;24169;-76
2023/01/15 12:15:31;;;;;;;1.57;1.00;;;6.10;99.90;5.50;98377;;;;538891;262;24154;-78
2023/01/15 12:18:27;;;;;;;2.13;1.40;;;6.10;99.90;5.50;98381;;;;538412;262;24191;-79
2023/01/15 12:21:04;;;;;;;1.80;1.07;;;6.00;99.90;5.40;98371;;;;536581;262;24235;-79
2023/01/15 12:23:37;;;;;;;1.67;1.30;;;6.00;99.90;5.40;98374;;;;538912;262;24177;-77
2023/01/15 12:26:17;;;;;;;1.53;1.43;;;6.00;99.90;5.40;98389;;;;538653;262;24172;-78
2023/01/15 12:29:06;;;;;;;1.57;1.47;;;5.90;99.90;5.40;98397;;;;541790;262;24174;-78
2023/01/15 12:31:48;;;;;;;3.17;1.40;;;6.00;99.90;5.40;98410;;;;538817;262;24209;-79
2023/01/15 12:34:23;;;;;;;1.70;1.30;;;5.90;99.90;5.40;98410;;;;538658;262;24195;-76
2023/01/15 12:37:06;;;;;;;2.20;2.07;;;5.90;99.90;5.40;98400;;;;541749;262;24181;-77
2023/01/15 12:39:33;;;;;;;1.30;1.00;;;6.00;99.90;5.40;98398;;;;538567;262;24173;-76
2023/01/15 12:45:04;;;;;;;1.73;1.30;;;6.00;99.90;5.40;98403;;;;546629;260;24152;-79
2023/01/15 12:47:53;;;;;;;1.30;1.10;;;6.00;99.90;5.40;98402;;;;546438;262;24172;-79